This is the latest recevied weather packets stored in our database for station/object DG4CB-13. If no packets are shown the sender has not sent any weather packets the latest 10 day(s).
| Time | Temp. | Humidity | Pressure | Rain* | Wind** | Luminosity | Snow |
|---|---|---|---|---|---|---|---|
| 1777573200 | 20.56° C | 23% | 1025.1 hPa | - | - | - | - |
| 1777572600 | 20.56° C | 22% | 1025 hPa | - | - | - | - |
| 1777572000 | 21.11° C | 22% | 1025 hPa | - | - | - | - |
| 1777571400 | 21.67° C | 21% | 1025 hPa | - | - | - | - |
| 1777570800 | 21.67° C | 20% | 1025.1 hPa | - | - | - | - |
| 1777570200 | 22.22° C | 20% | 1025 hPa | - | - | - | - |
| 1777569600 | 22.22° C | 20% | 1025 hPa | - | - | - | - |
| 1777569000 | 22.22° C | 19% | 1024.9 hPa | - | - | - | - |
| 1777568400 | 22.78° C | 17% | 1024.9 hPa | - | - | - | - |
| 1777567800 | 22.78° C | 17% | 1024.9 hPa | - | - | - | - |
| 1777567200 | 23.33° C | 16% | 1025 hPa | - | - | - | - |
| 1777566601 | 23.33° C | 17% | 1025.1 hPa | - | - | - | - |
| 1777566000 | 23.33° C | 17% | 1025.1 hPa | - | - | - | - |
| 1777565400 | 23.89° C | 17% | 1025.1 hPa | - | - | - | - |
| 1777564800 | 23.33° C | 17% | 1025.1 hPa | - | - | - | - |
| 1777564200 | 22.78° C | 17% | 1025.2 hPa | - | - | - | - |
| 1777563600 | 23.33° C | 18% | 1025.3 hPa | - | - | - | - |
| 1777563000 | 23.33° C | 18% | 1025.3 hPa | - | - | - | - |
| 1777562400 | 22.78° C | 18% | 1025.3 hPa | - | - | - | - |
| 1777561801 | 22.22° C | 20% | 1025.3 hPa | - | - | - | - |
| 1777561200 | 22.78° C | 17% | 1025.3 hPa | - | - | - | - |
| 1777560600 | 22.22° C | 20% | 1025.3 hPa | - | - | - | - |
| 1777560000 | 22.22° C | 20% | 1025.3 hPa | - | - | - | - |
| 1777559400 | 22.78° C | 18% | 1025.5 hPa | - | - | - | - |
| 1777558800 | 22.22° C | 20% | 1025.5 hPa | - | - | - | - |
* Rain since midnight (hover to see other rain measurements)
** Current wind speed in m/s (hover to see current wind gust speed)